Flight Track Log - Related Links

Times and Time Zones

All times are in EDT time to prevent confusion due to time zone crossing. See the AWE574 flight status page for this flight to view local times or setup timezone preferences in your user account.

Time Position Orientation Groundspeed Altitude Reporting Facility
EDT Latitude Longitude Course Direction KTS MPH feet Rate Location/Type
Sat 03:42:45 PM 33.4333 -111.9833 82° East 196 226 2,000  Level Phoenix TRACON
Sat 03:43:03 PM 33.4333 -111.9667 90° East 196 226 2,600 1,000 Climbing Phoenix TRACON
Sat 03:44:03 PM 33.4333 -111.8833 90° East 224 258 3,300 1,350 Climbing Phoenix TRACON
Sat 03:45:00 PM 33.4708 -111.5425 83° East  Level FlightAware Approximate
Sat 03:45:03 PM 33.4167 -111.8000 103° East 268 308 5,300  Level Phoenix TRACON
Sat 03:46:00 PM 33.4928 -111.3884 68° East  Level FlightAware Approximate
Sat 03:46:03 PM 33.4333 -111.7000 79° East 291 335 7,600  Level Phoenix TRACON
Sat 03:47:00 PM 33.5148 -111.2340 82° East  Level FlightAware Approximate
Sat 03:47:16 PM 33.4586 -111.6003 73° East 292 336 10,400  Level Albuquerque Center
Sat 03:48:17 PM 33.4800 -111.4958 76° East 324 373 11,200 1,317 Climbing Albuquerque Center
Sat 03:49:19 PM 33.5028 -111.3764 77° East 365 420 13,100 1,561 Climbing Albuquerque Center
Sat 03:50:20 PM 33.5161 -111.2544 82° East 368 423 14,400 1,279 Climbing Albuquerque Center
Sat 03:51:21 PM 33.5306 -111.1242 82° East 391 450 15,700 1,317 Climbing Albuquerque Center
Sat 03:52:23 PM 33.5458 -110.9903 82° East 405 466 17,100 1,512 Climbing Albuquerque Center
Sat 03:53:24 PM 33.5767 -110.8292 77° East 414 476 18,800 1,463 Climbing Albuquerque Center
Sat 03:54:26 PM 33.6192 -110.6972 69° East 420 483 20,100 1,122 Climbing Albuquerque Center
Sat 03:55:27 PM 33.6622 -110.5622 69° East 428 493 21,100 1,033 Climbing Albuquerque Center
Sat 03:56:28 PM 33.7072 -110.4253 68° East 434 499 22,200 976 Climbing Albuquerque Center
Sat 03:57:30 PM 33.7517 -110.2842 69° East 443 510 23,100 976 Climbing Albuquerque Center
Sat 03:58:31 PM 33.7992 -110.1383 69° East 454 522 24,200 934 Climbing Albuquerque Center
Sat 03:59:32 PM 33.8467 -109.9917 69° East 462 532 25,000 829 Climbing Albuquerque Center
Sat 04:00:34 PM 33.8933 -109.8436 69° East 466 536 25,900 829 Climbing Albuquerque Center
Sat 04:01:35 PM 33.9289 -109.6897 74° East 478 550 26,700 738 Climbing Albuquerque Center
Sat 04:02:36 PM 33.9617 -109.4944 79° East 491 565 27,400 689 Climbing Albuquerque Center
Sat 04:03:37 PM 33.9897 -109.3311 78° East 492 566 28,100 732 Climbing Albuquerque Center
Sat 04:04:39 PM 34.0169 -109.1667 79° East 497 572 28,900 829 Climbing Albuquerque Center
Sat 04:05:40 PM 34.0442 -108.9975 79° East 498 573 29,800 836 Climbing Albuquerque Center
Sat 04:06:41 PM 34.0656 -108.8406 81° East 498 573 30,600 780 Climbing Albuquerque Center
Sat 04:07:43 PM 34.0883 -108.6697 81° East 498 573 31,400 780 Climbing Albuquerque Center
Sat 04:08:44 PM 34.1086 -108.5039 82° East 500 575 32,200 787 Climbing Albuquerque Center
Sat 04:09:45 PM 34.1311 -108.3264 81° East 499 574 33,000 390 Climbing Albuquerque Center
Sat 04:10:47 PM 34.1506 -108.1633 82° East 497 572 33,000  Level Albuquerque Center
Sat 04:11:48 PM 34.1706 -108.0006 82° East 496 571 33,000  Level Albuquerque Center
Sat 04:12:49 PM 34.1894 -107.8369 82° East 496 571 33,000  Level Albuquerque Center
Sat 04:13:51 PM 34.2078 -107.6772 82° East 491 565 33,000  Level Albuquerque Center
Sat 04:14:52 PM 34.2275 -107.5186 81° East 487 560 33,000  Level Albuquerque Center
Sat 04:15:53 PM 34.2497 -107.3244 82° East 486 559 33,000  Level Albuquerque Center
Sat 04:16:55 PM 34.2689 -107.1614 82° East 487 560 33,000  Level Albuquerque Center
Sat 04:17:56 PM 34.2872 -106.9978 82° East 490 564 33,000  Level Albuquerque Center
Sat 04:18:57 PM 34.3050 -106.8356 82° East 493 567 33,000  Level Albuquerque Center
Sat 04:19:59 PM 34.3275 -106.6531 81° East 493 567 33,000  Level Albuquerque Center
Sat 04:21:00 PM 34.3428 -106.5086 83° East 494 568 33,000  Level Albuquerque Center
Sat 04:22:01 PM 34.3600 -106.3433 83° East 498 573 33,000  Level Albuquerque Center
Sat 04:23:03 PM 34.3811 -106.1556 82° East 491 565 33,000  Level Albuquerque Center
Sat 04:24:04 PM 34.3967 -105.9897 83° East 490 564 33,000  Level Albuquerque Center
Sat 04:25:05 PM 34.4147 -105.8244 82° East 490 564 33,000  Level Albuquerque Center
Sat 04:26:07 PM 34.4308 -105.6592 83° East 490 564 33,000  Level Albuquerque Center
Sat 04:27:08 PM 34.4481 -105.4939 83° East 491 565 33,000  Level Albuquerque Center
Sat 04:28:09 PM 34.4644 -105.3264 83° East 492 566 33,000  Level Albuquerque Center
Sat 04:29:10 PM 34.4808 -105.1600 83° East 492 566 33,000  Level Albuquerque Center
Sat 04:30:12 PM 34.4964 -104.9956 83° East 492 566 33,000  Level Albuquerque Center
Sat 04:31:13 PM 34.5125 -104.8319 83° East 492 566 33,000  Level Albuquerque Center
Sat 04:32:14 PM 34.5311 -104.6406 83° East 491 565 33,000  Level Albuquerque Center
Sat 04:33:16 PM 34.5467 -104.4764 83° East 490 564 33,000  Level Albuquerque Center
Sat 04:34:17 PM 34.5611 -104.3114 84° East 490 564 33,000  Level Albuquerque Center
Sat 04:35:18 PM 34.5767 -104.1489 83° East 487 560 33,000  Level Albuquerque Center
Sat 04:36:20 PM 34.5914 -103.9822 84° East 491 565 33,000  Level Albuquerque Center
Sat 04:37:21 PM 34.5917 -103.8147 90° East 497 572 33,000 49 Level Albuquerque Center
Sat 04:38:22 PM 34.5747 -103.6456 97° East 500 575 33,100  Climbing Albuquerque Center
Sat 04:39:24 PM 34.5594 -103.4789 96° East 499 574 33,000 -49 Descending Albuquerque Center
Sat 04:40:25 PM 34.5536 -103.3111 92° East 499 574 33,000  Level Albuquerque Center
Sat 04:41:26 PM 34.5500 -103.1444 91° East 497 572 33,000  Level Albuquerque Center
Sat 04:42:28 PM 34.5650 -102.9786 84° East 495 570 33,000  Level Albuquerque Center
Sat 04:43:29 PM 34.5797 -102.7867 85° East 493 567 33,000  Level Albuquerque Center
Sat 04:44:30 PM 34.5939 -102.6311 84° East 492 566 33,000  Level Albuquerque Center
Sat 04:45:32 PM 34.6083 -102.4681 84° East 491 565 33,000  Level Albuquerque Center
Sat 04:46:33 PM 34.6214 -102.3058 84° East 490 564 33,000  Level Albuquerque Center
Sat 04:47:34 PM 34.6350 -102.1422 84° East 490 564 33,000  Level Albuquerque Center
Sat 04:48:36 PM 34.6483 -101.9803 84° East 488 562 33,000  Level Albuquerque Center
Sat 04:49:37 PM 34.6636 -101.7864 84° East 488 562 33,000  Level Albuquerque Center
Sat 04:50:38 PM 34.6764 -101.6211 85° East 489 563 33,000  Level Albuquerque Center
Sat 04:51:40 PM 34.6894 -101.4581 84° East 491 565 33,000  Level Albuquerque Center
Sat 04:52:41 PM 34.7014 -101.2967 85° East 490 564 33,000  Level Albuquerque Center
Sat 04:53:42 PM 34.7133 -101.1331 85° East 490 564 33,000  Level Albuquerque Center
Sat 04:54:43 PM 34.7256 -100.9683 85° East 490 564 33,000  Level Albuquerque Center
Sat 04:55:45 PM 34.7369 -100.8053 85° East 490 564 33,000  Level Albuquerque Center
Sat 04:56:46 PM 34.7517 -100.6083 85° East 490 564 33,000  Level Albuquerque Center
Sat 04:57:47 PM 34.7622 -100.4436 85° East 490 564 33,000  Level Albuquerque Center
Sat 04:58:49 PM 34.7733 -100.2744 85° East 488 562 33,000  Level Albuquerque Center
Sat 04:59:50 PM 34.7839 -100.1114 85° East 486 559 33,000 -49 Level Albuquerque Center
Sat 05:00:51 PM 34.7944 -99.9481 85° East 486 559 32,900  Descending Albuquerque Center
Sat 05:01:52 PM 34.8058 -99.7847 85° East 486 559 33,000  Climbing Albuquerque Center
Sat 05:02:54 PM 34.8150 -99.6225 86° East 484 557 32,900  Descending Albuquerque Center
Sat 05:03:55 PM 34.8250 -99.4569 86° East 485 558 33,000 49 Climbing Albuquerque Center
Sat 05:04:56 PM 34.8353 -99.2925 86° East 486 559 33,000  Level Albuquerque Center
Sat 05:06:21 PM 34.8489 -99.0622 86° East 494 568 33,000  Level Fort Worth Center
Sat 05:07:22 PM 34.8578 -98.8958 86° East 494 568 33,000  Level Fort Worth Center
Sat 05:08:24 PM 34.8669 -98.7275 86° East 496 571 33,000  Level Fort Worth Center
Sat 05:09:26 PM 34.8772 -98.5258 86° East 498 573 33,000  Level Fort Worth Center
Sat 05:10:27 PM 34.8836 -98.3772 87° East 498 573 33,000  Level Fort Worth Center
Sat 05:11:29 PM 34.9047 -98.2106 81° East 502 578 33,000  Level Fort Worth Center
Sat 05:12:31 PM 34.9317 -98.0131 80° East 498 573 33,000  Level Fort Worth Center
Sat 05:13:32 PM 34.9547 -97.8475 80° East 502 578 33,000  Level Fort Worth Center
Sat 05:14:34 PM 34.9781 -97.6847 80° East 497 572 33,000  Level Fort Worth Center
Sat 05:15:36 PM 35.0025 -97.5200 80° East 502 578 33,000  Level Fort Worth Center
Sat 05:16:37 PM 35.0286 -97.3556 79° East 502 578 33,000  Level Fort Worth Center
Sat 05:17:39 PM 35.0550 -97.1931 79° East 499 574 33,000  Level Fort Worth Center
Sat 05:18:41 PM 35.0881 -96.9989 78° East 496 571 33,000  Level Fort Worth Center
Sat 05:19:42 PM 35.1167 -96.8344 78° East 497 572 33,000  Level Fort Worth Center
Sat 05:20:44 PM 35.1447 -96.6714 78° East 497 572 33,000  Level Fort Worth Center
Sat 05:21:46 PM 35.1764 -96.5086 77° East 497 572 33,000  Level Fort Worth Center
Sat 05:22:48 PM 35.2142 -96.3481 74° East 495 570 33,000  Level Fort Worth Center
Sat 05:23:49 PM 35.2600 -96.1889 71° East 499 574 33,000  Level Fort Worth Center
Sat 05:24:51 PM 35.3144 -95.9958 71° East 501 577 33,000 -48 Level Fort Worth Center
Sat 05:25:53 PM 35.3597 -95.8356 71° East 501 577 32,900 -49 Descending Fort Worth Center
Sat 05:26:54 PM 35.4069 -95.6731 70° East 504 580 32,900 49 Level Fort Worth Center
Sat 05:27:56 PM 35.4544 -95.5136 70° East 504 580 33,000 49 Climbing Fort Worth Center
Sat 05:28:57 PM 35.4817 -95.3500 78° East 501 577 33,000 -49 Level Fort Worth Center
Sat 05:29:59 PM 35.4775 -95.1906 92° East 473 544 32,900 -48 Descending Fort Worth Center
Sat 05:31:01 PM 35.4644 -94.9969 95° East 472 543 32,900 49 Level Fort Worth Center
Sat 05:32:02 PM 35.4533 -94.8333 95° East 479 551 33,000 49 Climbing Fort Worth Center
Sat 05:33:04 PM 35.4422 -94.6658 95° East 487 560 33,000  Level Fort Worth Center
Sat 05:34:06 PM 35.4300 -94.4969 95° East 494 568 33,000  Level Fort Worth Center
Sat 05:35:07 PM 35.4178 -94.3269 95° East 497 572 33,000 49 Level Fort Worth Center
Sat 05:36:09 PM 35.4053 -94.1575 95° East 498 573 33,100  Climbing Fort Worth Center
Sat 05:37:11 PM 35.3933 -93.9881 95° East 498 573 33,000 -48 Descending Fort Worth Center
Sat 05:38:13 PM 35.3794 -93.8189 96° East 498 573 33,000  Level Fort Worth Center
Sat 05:39:14 PM 35.3658 -93.6514 96° East 498 573 33,000  Level Fort Worth Center
Sat 05:40:35 PM 35.3469 -93.4183 96° East 495 570 33,000  Level Memphis Center
Sat 05:41:36 PM 35.3303 -93.2278 96° East 495 570 33,000  Level Memphis Center
Sat 05:42:38 PM 35.3158 -93.0586 96° East 496 571 33,000  Level Memphis Center
Sat 05:43:39 PM 35.3000 -92.8883 96° East 501 577 33,000  Level Memphis Center
Sat 05:44:40 PM 35.2861 -92.7200 96° East 501 577 33,000  Level Memphis Center
Sat 05:45:41 PM 35.2725 -92.5611 96° East 493 567 33,000  Level Memphis Center
Sat 05:46:43 PM 35.2581 -92.3958 96° East 492 566 33,000  Level Memphis Center
Sat 05:47:44 PM 35.2406 -92.2311 97° East 491 565 33,000  Level Memphis Center
Sat 05:48:45 PM 35.2261 -92.0664 96° East 491 565 33,000  Level Memphis Center
Sat 05:49:46 PM 35.2094 -91.8717 96° East 485 558 33,000  Level Memphis Center
Sat 05:50:48 PM 35.1939 -91.7106 97° East 483 556 33,000  Level Memphis Center
Sat 05:51:49 PM 35.1783 -91.5494 97° East 482 555 33,000  Level Memphis Center
Sat 05:52:50 PM 35.1633 -91.3903 97° East 478 550 33,000  Level Memphis Center
Sat 05:53:52 PM 35.1481 -91.2364 97° East 475 547 33,000  Level Memphis Center
Sat 05:54:53 PM 35.1319 -91.0778 97° East 475 547 33,000  Level Memphis Center
Sat 05:55:54 PM 35.1164 -90.9183 97° East 475 547 33,000  Level Memphis Center
Sat 05:56:55 PM 35.0997 -90.7589 97° East 475 547 33,000  Level Memphis Center
Sat 05:57:57 PM 35.0789 -90.5661 97° East 475 547 33,000  Level Memphis Center
Sat 05:58:58 PM 35.0619 -90.4044 97° East 477 549 33,000  Level Memphis Center
Sat 05:59:59 PM 35.0442 -90.2425 98° East 478 550 33,000  Level Memphis Center
Sat 06:01:00 PM 35.0436 -90.0792 90° East 480 552 33,000  Level Memphis Center
Sat 06:02:02 PM 35.0450 -89.9117 89° East 481 554 33,000  Level Memphis Center
Sat 06:03:03 PM 35.0464 -89.7422 89° East 487 560 33,000  Level Memphis Center
Sat 06:04:04 PM 35.0458 -89.5722 90° East 489 563 33,000  Level Memphis Center
Sat 06:05:06 PM 35.0475 -89.4019 89° East 493 567 33,000  Level Memphis Center
Sat 06:06:07 PM 35.0647 -89.2353 83° East 493 567 33,000  Level Memphis Center
Sat 06:07:08 PM 35.0833 -89.0686 82° East 493 567 33,000  Level Memphis Center
Sat 06:08:10 PM 35.0969 -88.9022 84° East 493 567 33,000  Level Memphis Center
Sat 06:09:11 PM 35.1122 -88.7372 83° East 493 567 33,000  Level Memphis Center
Sat 06:10:12 PM 35.1267 -88.5725 84° East 492 566 33,000  Level Memphis Center
Sat 06:11:14 PM 35.0894 -88.3958 104° East 484 557 33,000  Level Memphis Center
Sat 06:12:15 PM 35.0050 -88.2794 132° Southeast 461 531 33,000  Level Memphis Center
Sat 06:13:16 PM 34.9164 -88.1667 134° Southeast 461 531 33,000  Level Memphis Center
Sat 06:14:18 PM 34.8225 -88.0642 138° Southeast 458 527 33,000  Level Memphis Center
Sat 06:15:19 PM 34.7533 -87.9317 122° Southeast 464 534 33,000  Level Memphis Center
Sat 06:16:21 PM 34.7014 -87.7861 113° Southeast 467 537 33,000  Level Memphis Center
Sat 06:17:22 PM 34.6464 -87.6058 110° East 468 539 33,000  Level Memphis Center
Sat 06:18:23 PM 34.6017 -87.4511 109° East 474 545 33,000  Level Memphis Center
Sat 06:19:25 PM 34.5622 -87.3247 111° Southeast 474 545 33,000  Level Memphis Center
Sat 06:20:26 PM 34.4911 -87.1578 117° Southeast 474 545 33,000  Level Memphis Center
Sat 06:21:27 PM 34.4236 -87.0208 121° Southeast 473 544 33,000  Level Memphis Center
Sat 06:22:29 PM 34.3453 -86.8956 127° Southeast 471 542 33,000  Level Memphis Center
Sat 06:23:30 PM 34.2697 -86.7692 126° Southeast 464 534 33,000 -49 Level Memphis Center
Sat 06:24:32 PM 34.1933 -86.6422 126° Southeast 464 534 32,900 49 Descending Memphis Center
Sat 06:25:32 PM 34.1139 -86.5128 127° Southeast 470 541 33,100 100 Climbing Atlanta Center
Sat 06:26:32 PM 34.0350 -86.3825 126° Southeast 475 547 33,100 -50 Level Atlanta Center
Sat 06:27:32 PM 33.9539 -86.2525 127° Southeast 475 547 33,000 -50 Descending Atlanta Center
Sat 06:28:32 PM 33.8728 -86.1231 127° Southeast 481 554 33,000  Level Atlanta Center
Sat 06:29:32 PM 33.7933 -85.9936 126° Southeast 481 554 33,000  Level Atlanta Center
Sat 06:30:32 PM 33.7139 -85.8669 127° Southeast 481 554 33,000 -50 Level Atlanta Center
Sat 06:31:32 PM 33.6303 -85.7278 126° Southeast 473 544 32,900  Descending Atlanta Center
Sat 06:32:32 PM 33.5486 -85.6017 128° Southeast 473 544 33,000 100 Climbing Atlanta Center
Sat 06:33:32 PM 33.4686 -85.4733 127° Southeast 478 550 33,100  Climbing Atlanta Center
Sat 06:34:32 PM 33.3844 -85.3425 128° Southeast 483 556 33,000 -50 Descending Atlanta Center
Sat 06:35:32 PM 33.3086 -85.2169 126° Southeast 476 548 33,000  Level Atlanta Center
Sat 06:36:32 PM 33.2283 -85.0917 127° Southeast 476 548 33,000  Level Atlanta Center
Sat 06:37:32 PM 33.1500 -84.9692 127° Southeast 476 548 33,000  Level Atlanta Center
Sat 06:38:32 PM 33.0714 -84.8494 128° Southeast 471 542 33,000  Level Atlanta Center
Sat 06:39:32 PM 32.9867 -84.7272 130° Southeast 471 542 33,000  Level Atlanta Center
Sat 06:40:32 PM 32.8975 -84.6178 134° Southeast 471 542 33,000  Level Atlanta Center
Sat 06:41:32 PM 32.8039 -84.5083 135° Southeast 466 536 33,000  Level Atlanta Center
Sat 06:42:32 PM 32.7019 -84.4142 142° Southeast 466 536 33,000  Level Atlanta Center
Sat 06:43:32 PM 32.6042 -84.3100 138° Southeast 471 542 33,000  Level Atlanta Center
Sat 06:44:32 PM 32.5125 -84.1964 134° Southeast 471 542 33,000  Level Atlanta Center
Sat 06:45:32 PM 32.4250 -84.0806 132° Southeast 471 542 33,000 -200 Level Atlanta Center
Sat 06:46:32 PM 32.3372 -83.9650 132° Southeast 471 542 32,600 -500 Descending Atlanta Center
Sat 06:47:32 PM 32.2411 -83.8694 140° Southeast 471 542 32,000 -257 Descending Atlanta Center
Sat 06:48:52 PM 32.1072 -83.7633 146° Southeast 474 545 32,000  Level Jacksonville Center
Sat 06:49:50 PM 31.9969 -83.6789 147° Southeast 474 545 32,000  Level Jacksonville Center
Sat 06:50:50 PM 31.8869 -83.5850 144° Southeast 485 558 32,000  Level Jacksonville Center
Sat 06:51:50 PM 31.7706 -83.4814 143° Southeast 485 558 32,000  Level Jacksonville Center
Sat 06:52:52 PM 31.6561 -83.3978 148° Southeast 485 558 32,000  Level Jacksonville Center
Sat 06:53:52 PM 31.5417 -83.3167 149° Southeast 485 558 32,000  Level Jacksonville Center
Sat 06:54:50 PM 31.4122 -83.2722 164° South 471 542 32,000 -50 Level Jacksonville Center
Sat 06:55:51 PM 31.2828 -83.2353 166° South 477 549 31,900 -492 Descending Jacksonville Center
Sat 06:56:52 PM 31.1472 -83.2131 172° South 487 560 31,000 -454 Descending Jacksonville Center
Sat 06:57:50 PM 31.0136 -83.2028 176° South 487 560 31,000  Level Jacksonville Center
Sat 06:58:50 PM 30.8819 -83.2047 181° South 481 554 31,000 -50 Level Jacksonville Center
Sat 06:59:51 PM 30.7672 -83.2189 186° South 476 548 30,900 -49 Descending Jacksonville Center
Sat 07:00:52 PM 30.6189 -83.2475 189° South 486 559 30,900 50 Level Jacksonville Center
Sat 07:01:52 PM 30.4894 -83.2733 190° South 486 559 31,000 51 Climbing Jacksonville Center
Sat 07:02:50 PM 30.3536 -83.2969 189° South 486 559 31,000  Level Jacksonville Center
Sat 07:03:50 PM 30.2242 -83.3228 190° South 486 559 31,000  Level Jacksonville Center
Sat 07:04:51 PM 30.0925 -83.3486 190° South 486 559 31,000 -50 Level Jacksonville Center
Sat 07:05:51 PM 29.9586 -83.3744 189° South 486 559 30,900 -198 Descending Jacksonville Center
Sat 07:06:52 PM 29.8228 -83.4025 190° South 486 559 30,600 -605 Descending Jacksonville Center
Sat 07:07:50 PM 29.6914 -83.4258 189° South 486 559 29,700 -966 Descending Jacksonville Center
Sat 07:08:50 PM 29.5575 -83.4489 189° South 486 559 28,700 -942 Descending Jacksonville Center
Sat 07:09:51 PM 29.4281 -83.4719 189° South 486 559 27,800 -950 Descending Jacksonville Center
Sat 07:10:50 PM 29.3006 -83.4975 190° South 486 559 26,800 -958 Descending Jacksonville Center
Sat 07:11:50 PM 29.1775 -83.4872 176° South 440 506 25,900 -950 Descending Jacksonville Center
Sat 07:12:50 PM 29.0756 -83.4200 150° Southeast 422 486 24,900 -1,488 Descending Jacksonville Center
Sat 07:13:51 PM 28.9733 -83.3553 151° Southeast 413 475 22,900 -2,016 Descending Jacksonville Center
Sat 07:14:52 PM 28.8756 -83.2933 151° Southeast 413 475 20,800 -2,750 Descending Jacksonville Center
Sat 07:15:51 PM 28.7778 -83.2289 150° Southeast 413 475 17,400 -3,000 Descending Jacksonville Center
Sat 07:16:52 PM 28.6797 -83.1669 151° Southeast 413 475 14,800 -2,593 Descending Jacksonville Center
Sat 07:17:49 PM 28.5833 -83.1000 149° Southeast 393 452 12,300 -2,154 Descending Tampa TRACON
Sat 07:18:49 PM 28.4833 -83.0500 156° South 363 418 10,600 -1,526 Descending Tampa TRACON
Sat 07:19:43 PM 28.4333 -83.0000 139° Southeast 298 343 9,400 -1,316 Descending Tampa TRACON
Sat 07:20:43 PM 28.4333 -82.9000 90° East 277 319 8,100 -1,190 Descending Tampa TRACON
Sat 07:21:44 PM 28.4333 -82.8167 90° East 276 318 7,000 -694 Descending Tampa TRACON
Sat 07:22:44 PM 28.4333 -82.7333 90° East 273 314 6,700 -500 Descending Tampa TRACON
Sat 07:23:44 PM 28.4333 -82.6500 90° East 271 312 6,000 -333 Descending Tampa TRACON
Sat 07:24:50 PM 28.4333 -82.5500 90° East 273 314 6,000  Level Tampa TRACON
Sat 07:25:50 PM 28.4167 -82.4667 103° East 270 311 6,000  Level Tampa TRACON
Sat 07:26:56 PM 28.4167 -82.3667 90° East 273 314 6,000  Level Tampa TRACON
Sat 07:27:56 PM 28.3500 -82.3333 156° South 273 314 6,000 -526 Level Tampa TRACON
Sat 07:28:50 PM 28.2833 -82.3500 192° South 266 306 5,000 -1,000 Descending Tampa TRACON
Sat 07:29:56 PM 28.2167 -82.4000 213° Southwest 252 290 4,000 -857 Descending Tampa TRACON
Sat 07:30:56 PM 28.1833 -82.4500 233° Southwest 215 247 3,200 -600 Descending Tampa TRACON
Sat 07:31:56 PM 28.1333 -82.4833 210° Southwest 168 193 2,800 -500 Descending Tampa TRACON
Sat 07:32:56 PM 28.1000 -82.5167 221° Southwest 165 190 2,200 -684 Descending Tampa TRACON
Sat 07:33:50 PM 28.0667 -82.5333 204° Southwest 141 162 1,500 -750 Descending Tampa TRACON
Sat 07:34:56 PM 28.0333 -82.5333 180° South 156 180 700 -727 Descending Tampa TRACON
Sat 07:37:00 PM 27.9667 -82.5167 161° South  Level FlightAware Approximate

Login

Don't have an account? Register now (free) for customized features, flight alerts, and more!